Time;durP1;ratioP1;P1;durP2;ratioP2;P2;SDS_P1;SDS_P2;PMS_P1;PMS_P2;Temp;Humidity;BMP_temperature;BMP_pressure;BME280_temperature;BME280_humidity;BME280_pressure;Samples;Min_cycle;Max_cycle;Signal;HPM_P1;HPM_P2
2023/07/20 00:00:53;;;;;;;0.40;0.40;;;;;;;;;;5092957;28;20205;-84
2023/07/20 00:03:23;;;;;;;2.57;0.90;;;;;;;;;;5092546;28;20298;-82
2023/07/20 00:05:51;;;;;;;0.40;0.40;;;;;;;;;;5092686;28;20224;-82
2023/07/20 00:08:20;;;;;;;0.40;0.40;;;;;;;;;;5092067;28;20225;-82
2023/07/20 00:10:49;;;;;;;0.50;0.50;;;;;;;;;;5092691;28;20193;-82
2023/07/20 00:13:19;;;;;;;0.40;0.40;;;;;;;;;;5092497;28;20215;-81
2023/07/20 00:15:47;;;;;;;0.40;0.40;;;;;;;;;;5092103;28;20270;-81
2023/07/20 00:18:16;;;;;;;0.50;0.50;;;;;;;;;;5092740;28;20200;-81
2023/07/20 00:20:44;;;;;;;0.40;0.40;;;;;;;;;;5092648;28;20224;-81
2023/07/20 00:23:14;;;;;;;0.40;0.40;;;;;;;;;;5091679;28;20227;-81
2023/07/20 00:25:42;;;;;;;0.40;0.40;;;;;;;;;;5091951;28;20205;-82
2023/07/20 00:28:12;;;;;;;0.60;0.60;;;;;;;;;;5092096;28;20236;-82
2023/07/20 00:30:41;;;;;;;1.37;1.33;;;;;;;;;;5092250;28;20198;-82
2023/07/20 00:33:11;;;;;;;0.40;0.40;;;;;;;;;;5091630;28;20230;-82
2023/07/20 00:35:40;;;;;;;0.43;0.43;;;;;;;;;;5091809;28;20216;-82
2023/07/20 00:38:09;;;;;;;0.40;0.40;;;;;;;;;;5092088;28;20195;-82
2023/07/20 00:40:37;;;;;;;0.40;0.40;;;;;;;;;;5092367;28;20254;-82
2023/07/20 00:43:06;;;;;;;1.07;0.87;;;;;;;;;;5091259;28;20204;-82
2023/07/20 00:45:36;;;;;;;0.73;0.73;;;;;;;;;;5091926;28;20279;-82
2023/07/20 00:48:05;;;;;;;0.73;0.47;;;;;;;;;;5092414;28;20224;-82
2023/07/20 00:50:35;;;;;;;0.67;0.67;;;;;;;;;;5091673;28;20289;-82
2023/07/20 00:53:04;;;;;;;0.70;0.70;;;;;;;;;;5091796;28;20200;-82
2023/07/20 00:55:33;;;;;;;1.27;0.63;;;;;;;;;;5092077;28;20325;-82
2023/07/20 00:58:02;;;;;;;0.50;0.50;;;;;;;;;;5091949;28;20204;-82
2023/07/20 01:00:30;;;;;;;0.40;0.40;;;;;;;;;;5091806;28;20208;-82
2023/07/20 01:03:00;;;;;;;1.90;1.90;;;;;;;;;;5091804;28;20223;-82
2023/07/20 01:05:35;;;;;;;0.40;0.40;;;;;;;;;;5091559;28;20197;-82
2023/07/20 01:08:06;;;;;;;0.80;0.80;;;;;;;;;;5091342;28;20200;-82
2023/07/20 01:10:36;;;;;;;0.40;0.40;;;;;;;;;;5091781;28;20209;-82
2023/07/20 01:13:05;;;;;;;0.50;0.50;;;;;;;;;;5091508;28;20197;-82
2023/07/20 01:15:35;;;;;;;0.70;0.70;;;;;;;;;;5091752;28;20224;-82
2023/07/20 01:18:05;;;;;;;0.40;0.40;;;;;;;;;;5091716;28;20203;-82
2023/07/20 01:20:34;;;;;;;0.40;0.40;;;;;;;;;;5091623;28;20216;-82
2023/07/20 01:23:14;;;;;;;0.50;0.50;;;;;;;;;;5091478;28;20211;-82
2023/07/20 01:25:59;;;;;;;0.40;0.40;;;;;;;;;;5091211;28;20262;-82
2023/07/20 01:28:42;;;;;;;0.50;0.50;;;;;;;;;;5091095;28;20236;-82
2023/07/20 01:31:31;;;;;;;0.40;0.40;;;;;;;;;;5091589;28;20200;-82
2023/07/20 01:34:02;;;;;;;0.40;0.40;;;;;;;;;;5085113;28;20205;-83
2023/07/20 01:36:32;;;;;;;1.07;1.00;;;;;;;;;;5091400;28;20215;-83
2023/07/20 01:39:00;;;;;;;0.83;0.83;;;;;;;;;;5091468;28;20242;-83
2023/07/20 01:41:29;;;;;;;1.73;1.63;;;;;;;;;;5091074;28;20211;-83
2023/07/20 01:44:00;;;;;;;1.07;1.07;;;;;;;;;;5090980;28;20234;-83
2023/07/20 01:46:28;;;;;;;0.40;0.40;;;;;;;;;;5091590;28;20207;-83
2023/07/20 01:48:57;;;;;;;0.40;0.40;;;;;;;;;;5091279;28;20349;-83
2023/07/20 01:51:27;;;;;;;0.40;0.40;;;;;;;;;;5091063;28;20250;-83
2023/07/20 01:53:55;;;;;;;0.50;0.50;;;;;;;;;;5091280;28;20200;-83
2023/07/20 01:56:24;;;;;;;0.53;0.53;;;;;;;;;;5091053;28;20236;-83
2023/07/20 01:58:52;;;;;;;0.40;0.40;;;;;;;;;;5091209;28;20200;-83
2023/07/20 02:01:21;;;;;;;0.90;0.90;;;;;;;;;;5091020;28;20204;-83
2023/07/20 02:03:49;;;;;;;2.97;2.33;;;;;;;;;;5091212;28;20203;-83
2023/07/20 02:06:18;;;;;;;2.20;1.93;;;;;;;;;;5090899;28;20208;-83
2023/07/20 02:08:47;;;;;;;0.60;0.60;;;;;;;;;;5090593;28;20307;-83
2023/07/20 02:11:16;;;;;;;1.03;1.00;;;;;;;;;;5090937;28;20201;-83
2023/07/20 02:13:44;;;;;;;0.40;0.40;;;;;;;;;;5090960;28;20213;-83
2023/07/20 02:16:13;;;;;;;0.43;0.43;;;;;;;;;;5092382;28;20194;-83
2023/07/20 02:18:41;;;;;;;1.10;1.10;;;;;;;;;;5094363;28;20292;-83
2023/07/20 02:21:10;;;;;;;0.97;0.93;;;;;;;;;;5094796;28;20314;-83
2023/07/20 02:23:39;;;;;;;0.50;0.50;;;;;;;;;;5094652;28;20205;-83
2023/07/20 02:26:08;;;;;;;0.40;0.40;;;;;;;;;;5094381;28;20193;-83
2023/07/20 02:28:37;;;;;;;0.50;0.50;;;;;;;;;;5094516;28;20213;-83
2023/07/20 02:31:05;;;;;;;0.63;0.63;;;;;;;;;;5094494;28;20252;-83
2023/07/20 02:33:34;;;;;;;0.40;0.40;;;;;;;;;;5094501;28;20208;-83
2023/07/20 02:36:02;;;;;;;0.50;0.50;;;;;;;;;;5094175;28;20204;-83
2023/07/20 02:38:31;;;;;;;0.50;0.50;;;;;;;;;;5094591;28;20199;-83
2023/07/20 02:40:59;;;;;;;0.80;0.80;;;;;;;;;;5094574;28;20208;-83
2023/07/20 02:43:29;;;;;;;0.70;0.70;;;;;;;;;;5093680;28;20212;-83
2023/07/20 02:45:58;;;;;;;1.23;1.23;;;;;;;;;;5094376;28;20208;-83
2023/07/20 02:48:27;;;;;;;0.43;0.43;;;;;;;;;;5094435;28;20269;-83
2023/07/20 02:50:55;;;;;;;0.43;0.43;;;;;;;;;;5093872;28;20232;-83
2023/07/20 02:53:23;;;;;;;0.57;0.57;;;;;;;;;;5093296;28;20207;-83
2023/07/20 02:55:52;;;;;;;0.40;0.40;;;;;;;;;;5094109;28;20236;-83
2023/07/20 02:58:20;;;;;;;0.50;0.50;;;;;;;;;;5094111;28;20239;-83
2023/07/20 03:00:50;;;;;;;1.10;1.10;;;;;;;;;;5093776;28;20200;-83
2023/07/20 03:03:19;;;;;;;0.50;0.50;;;;;;;;;;5093633;28;20204;-83
2023/07/20 03:05:54;;;;;;;1.10;0.90;;;;;;;;;;5094041;28;20204;-83
2023/07/20 03:08:23;;;;;;;0.40;0.40;;;;;;;;;;5093421;28;20215;-83
2023/07/20 03:10:51;;;;;;;0.40;0.40;;;;;;;;;;5093240;28;20224;-83
2023/07/20 03:13:19;;;;;;;0.40;0.40;;;;;;;;;;5093305;28;20208;-83
2023/07/20 03:15:48;;;;;;;0.40;0.40;;;;;;;;;;5094187;28;20193;-83
2023/07/20 03:18:18;;;;;;;0.50;0.50;;;;;;;;;;5093386;28;20204;-83
2023/07/20 03:20:48;;;;;;;0.40;0.40;;;;;;;;;;5093348;28;20199;-83
2023/07/20 03:23:17;;;;;;;0.40;0.40;;;;;;;;;;5093070;28;20204;-83
2023/07/20 03:25:45;;;;;;;0.50;0.50;;;;;;;;;;5093453;28;20209;-82
2023/07/20 03:28:14;;;;;;;0.40;0.40;;;;;;;;;;5092587;28;20228;-83
2023/07/20 03:30:42;;;;;;;0.70;0.70;;;;;;;;;;5092927;28;20262;-83
2023/07/20 03:33:11;;;;;;;0.50;0.50;;;;;;;;;;5093180;28;20204;-83
2023/07/20 03:35:40;;;;;;;0.60;0.60;;;;;;;;;;5093050;28;20197;-83
2023/07/20 03:38:09;;;;;;;0.40;0.40;;;;;;;;;;5093267;28;20200;-82
2023/07/20 03:40:37;;;;;;;0.70;0.70;;;;;;;;;;5093327;28;20204;-82
2023/07/20 03:43:06;;;;;;;0.43;0.43;;;;;;;;;;5092974;28;20227;-82
2023/07/20 03:45:34;;;;;;;0.50;0.50;;;;;;;;;;5092420;28;20204;-82
2023/07/20 03:48:03;;;;;;;0.43;0.43;;;;;;;;;;5093658;28;20234;-82
2023/07/20 03:50:32;;;;;;;0.40;0.40;;;;;;;;;;5092854;28;20224;-82
2023/07/20 03:53:02;;;;;;;0.40;0.40;;;;;;;;;;5092712;28;20210;-82
2023/07/20 03:55:33;;;;;;;0.50;0.50;;;;;;;;;;5092546;28;20235;-82
2023/07/20 03:58:01;;;;;;;0.43;0.43;;;;;;;;;;5092759;28;20249;-82
2023/07/20 04:00:30;;;;;;;0.50;0.50;;;;;;;;;;5092433;28;20226;-82
2023/07/20 04:02:58;;;;;;;0.50;0.50;;;;;;;;;;5092271;28;20205;-82
2023/07/20 04:05:27;;;;;;;0.97;0.97;;;;;;;;;;5093010;28;20216;-82
2023/07/20 04:07:55;;;;;;;0.60;0.60;;;;;;;;;;5092604;28;20205;-82
2023/07/20 04:10:25;;;;;;;0.40;0.40;;;;;;;;;;5092205;28;20283;-82
2023/07/20 04:12:54;;;;;;;0.70;0.70;;;;;;;;;;5091856;28;20201;-82
2023/07/20 04:15:22;;;;;;;0.40;0.40;;;;;;;;;;5092740;28;20198;-82
2023/07/20 04:17:51;;;;;;;0.60;0.60;;;;;;;;;;5092515;28;20203;-82
2023/07/20 04:20:19;;;;;;;0.63;0.63;;;;;;;;;;5091914;28;20196;-82
2023/07/20 04:22:48;;;;;;;0.50;0.50;;;;;;;;;;5092036;28;20377;-82
2023/07/20 04:25:16;;;;;;;0.57;0.57;;;;;;;;;;5092543;28;20197;-82
2023/07/20 04:27:46;;;;;;;0.50;0.50;;;;;;;;;;5091908;28;20245;-82
2023/07/20 04:30:15;;;;;;;0.50;0.50;;;;;;;;;;5091828;28;20216;-82
2023/07/20 04:32:46;;;;;;;0.40;0.40;;;;;;;;;;5091845;28;20200;-82
2023/07/20 04:35:18;;;;;;;0.43;0.43;;;;;;;;;;5092358;28;20280;-83
2023/07/20 04:37:47;;;;;;;0.40;0.40;;;;;;;;;;5091830;28;20212;-83
2023/07/20 04:40:17;;;;;;;0.40;0.40;;;;;;;;;;5091824;28;20196;-83
2023/07/20 04:42:47;;;;;;;0.50;0.50;;;;;;;;;;5091917;28;20204;-83
2023/07/20 04:45:18;;;;;;;0.50;0.50;;;;;;;;;;5091476;28;20261;-83
2023/07/20 04:47:47;;;;;;;0.50;0.50;;;;;;;;;;5091701;28;20206;-83
2023/07/20 04:50:15;;;;;;;0.40;0.40;;;;;;;;;;5091971;28;20310;-83
2023/07/20 04:52:46;;;;;;;0.50;0.50;;;;;;;;;;5091631;28;20249;-83
2023/07/20 04:55:14;;;;;;;0.50;0.50;;;;;;;;;;5091280;28;20236;-83
2023/07/20 04:57:42;;;;;;;0.50;0.50;;;;;;;;;;5092013;28;20201;-83
2023/07/20 05:00:15;;;;;;;0.50;0.50;;;;;;;;;;5091861;28;20201;-83
2023/07/20 05:02:43;;;;;;;0.50;0.50;;;;;;;;;;5091194;28;20208;-82
2023/07/20 05:05:15;;;;;;;0.80;0.80;;;;;;;;;;5091438;28;20200;-83
2023/07/20 05:07:43;;;;;;;0.50;0.50;;;;;;;;;;5091772;28;20197;-83
2023/07/20 05:10:12;;;;;;;0.40;0.40;;;;;;;;;;5091581;28;20224;-83
2023/07/20 05:12:41;;;;;;;0.40;0.40;;;;;;;;;;5091306;28;20207;-83
2023/07/20 05:15:10;;;;;;;0.40;0.40;;;;;;;;;;5091846;28;20198;-82
2023/07/20 05:17:40;;;;;;;0.40;0.40;;;;;;;;;;5091557;28;20211;-83
2023/07/20 05:20:12;;;;;;;0.40;0.40;;;;;;;;;;5091319;28;20244;-83
2023/07/20 05:22:40;;;;;;;0.40;0.40;;;;;;;;;;5091103;28;20193;-83
2023/07/20 05:25:09;;;;;;;0.50;0.50;;;;;;;;;;5091884;28;20209;-83
2023/07/20 05:27:39;;;;;;;0.40;0.40;;;;;;;;;;5092069;28;20220;-83
2023/07/20 05:30:08;;;;;;;0.40;0.40;;;;;;;;;;5091082;28;20205;-83
2023/07/20 05:32:36;;;;;;;0.50;0.50;;;;;;;;;;5091114;28;20220;-83
2023/07/20 05:35:07;;;;;;;0.50;0.50;;;;;;;;;;5091672;28;20201;-83
2023/07/20 05:37:35;;;;;;;0.40;0.40;;;;;;;;;;5091408;28;20205;-83
2023/07/20 05:40:04;;;;;;;0.30;0.30;;;;;;;;;;5091333;28;20285;-83
2023/07/20 05:42:33;;;;;;;0.30;0.30;;;;;;;;;;5091165;28;20292;-82
2023/07/20 05:45:01;;;;;;;0.50;0.50;;;;;;;;;;5091161;28;20221;-82
2023/07/20 05:47:30;;;;;;;0.40;0.40;;;;;;;;;;5090922;28;20208;-83
2023/07/20 05:49:58;;;;;;;0.43;0.43;;;;;;;;;;5091762;28;20216;-83
2023/07/20 05:52:28;;;;;;;0.63;0.63;;;;;;;;;;5093934;28;20217;-82
2023/07/20 05:54:57;;;;;;;0.40;0.40;;;;;;;;;;5095131;28;20193;-83
2023/07/20 05:57:25;;;;;;;0.30;0.30;;;;;;;;;;5094462;28;20197;-83
2023/07/20 05:59:55;;;;;;;0.40;0.40;;;;;;;;;;5095302;28;20207;-83
2023/07/20 06:02:23;;;;;;;0.40;0.40;;;;;;;;;;5094701;28;20253;-81
2023/07/20 06:04:55;;;;;;;0.40;0.40;;;;;;;;;;5094476;28;20201;-83
2023/07/20 06:10:13;;;;;;;0.47;0.47;;;;;;;;;;5095178;28;20223;-83
2023/07/20 06:12:43;;;;;;;0.40;0.40;;;;;;;;;;5094249;28;20231;-83
2023/07/20 06:15:35;;;;;;;0.40;0.40;;;;;;;;;;5094620;28;20205;-83
2023/07/20 06:18:06;;;;;;;1.23;1.13;;;;;;;;;;5094912;28;20215;-87
2023/07/20 06:20:35;;;;;;;0.40;0.40;;;;;;;;;;5094590;28;20204;-86
2023/07/20 06:23:03;;;;;;;0.40;0.40;;;;;;;;;;5094535;28;20215;-86
2023/07/20 06:25:33;;;;;;;0.50;0.50;;;;;;;;;;5094383;28;20193;-86
2023/07/20 06:28:07;;;;;;;0.40;0.40;;;;;;;;;;5094276;28;20278;-83
2023/07/20 06:30:37;;;;;;;0.70;0.70;;;;;;;;;;5094286;28;20210;-82
2023/07/20 06:33:08;;;;;;;0.40;0.40;;;;;;;;;;5094061;28;20213;-80
2023/07/20 06:35:37;;;;;;;0.30;0.30;;;;;;;;;;5094529;28;20300;-80
2023/07/20 06:38:05;;;;;;;0.40;0.40;;;;;;;;;;5088180;28;20202;-80
2023/07/20 06:40:42;;;;;;;0.40;0.40;;;;;;;;;;5079646;28;20201;-81
2023/07/20 06:43:11;;;;;;;0.43;0.43;;;;;;;;;;5082237;28;20204;-85
2023/07/20 06:45:43;;;;;;;0.50;0.50;;;;;;;;;;5092576;28;20209;-84
2023/07/20 06:48:12;;;;;;;0.60;0.60;;;;;;;;;;5097662;28;20213;-84
2023/07/20 06:50:41;;;;;;;0.30;0.30;;;;;;;;;;5093209;28;20264;-85
2023/07/20 06:53:09;;;;;;;0.60;0.60;;;;;;;;;;5093339;28;20212;-83
2023/07/20 06:55:39;;;;;;;0.30;0.30;;;;;;;;;;5093414;28;20284;-84
2023/07/20 06:58:10;;;;;;;0.37;0.37;;;;;;;;;;5093262;28;20215;-85
2023/07/20 07:00:38;;;;;;;0.50;0.50;;;;;;;;;;5092493;28;20213;-85
2023/07/20 07:03:07;;;;;;;0.30;0.30;;;;;;;;;;5092801;28;20196;-84
2023/07/20 07:05:37;;;;;;;0.50;0.50;;;;;;;;;;5092942;28;20212;-85
2023/07/20 07:08:17;;;;;;;0.60;0.60;;;;;;;;;;5093407;28;20306;-83
2023/07/20 07:11:09;;;;;;;0.37;0.37;;;;;;;;;;5093107;28;20204;-82
2023/07/20 07:14:08;;;;;;;1.80;1.00;;;;;;;;;;5073299;28;20197;-82
2023/07/20 07:16:39;;;;;;;0.80;0.80;;;;;;;;;;5084649;28;20208;-82
2023/07/20 07:22:15;;;;;;;0.30;0.30;;;;;;;;;;5083912;28;20330;-82
2023/07/20 07:24:55;;;;;;;0.50;0.50;;;;;;;;;;5092124;28;20255;-82
2023/07/20 07:33:44;;;;;;;0.50;0.50;;;;;;;;;;5043900;28;20226;-82
2023/07/20 07:36:17;;;;;;;0.47;0.47;;;;;;;;;;5073280;28;20198;-82
2023/07/20 07:41:44;;;;;;;0.73;0.70;;;;;;;;;;5070845;28;20260;-82
2023/07/20 07:44:26;;;;;;;0.40;0.40;;;;;;;;;;5072243;28;20296;-82
2023/07/20 07:46:55;;;;;;;0.30;0.30;;;;;;;;;;5072811;28;20205;-82
2023/07/20 07:49:31;;;;;;;0.67;0.67;;;;;;;;;;5072500;28;20196;-82
2023/07/20 07:52:06;;;;;;;0.30;0.30;;;;;;;;;;5072944;28;20224;-82
2023/07/20 07:54:46;;;;;;;1.70;0.80;;;;;;;;;;5072416;28;20290;-82
2023/07/20 07:57:20;;;;;;;0.70;0.70;;;;;;;;;;5071991;28;20276;-82
2023/07/20 07:59:54;;;;;;;0.97;0.97;;;;;;;;;;5072340;28;20214;-82
2023/07/20 08:02:35;;;;;;;0.87;0.87;;;;;;;;;;5072537;28;20217;-82
2023/07/20 08:05:06;;;;;;;0.53;0.53;;;;;;;;;;5072798;28;20209;-83
2023/07/20 08:07:38;;;;;;;0.83;0.70;;;;;;;;;;5054332;28;20200;-82
2023/07/20 08:10:18;;;;;;;0.50;0.50;;;;;;;;;;5072209;28;20299;-82
2023/07/20 08:12:48;;;;;;;0.73;0.73;;;;;;;;;;5072175;28;20220;-85
2023/07/20 08:15:22;;;;;;;0.50;0.50;;;;;;;;;;5071349;28;20213;-85
2023/07/20 08:18:00;;;;;;;0.70;0.70;;;;;;;;;;5072260;28;20222;-85
2023/07/20 08:20:35;;;;;;;0.30;0.30;;;;;;;;;;5072211;28;20203;-85
2023/07/20 08:23:04;;;;;;;0.60;0.60;;;;;;;;;;5071917;28;20196;-85
2023/07/20 08:25:33;;;;;;;0.70;0.70;;;;;;;;;;5071622;28;20201;-85
2023/07/20 08:28:04;;;;;;;0.40;0.40;;;;;;;;;;5072475;28;20225;-85
2023/07/20 08:30:41;;;;;;;1.27;0.80;;;;;;;;;;5072222;28;20199;-85
2023/07/20 08:33:19;;;;;;;0.83;0.83;;;;;;;;;;5055084;28;20308;-85
2023/07/20 08:35:50;;;;;;;0.40;0.40;;;;;;;;;;5071808;28;20196;-84
2023/07/20 08:38:22;;;;;;;0.47;0.47;;;;;;;;;;5071913;28;20208;-84
2023/07/20 08:40:55;;;;;;;0.70;0.70;;;;;;;;;;5071870;28;20300;-85
2023/07/20 08:43:25;;;;;;;0.70;0.70;;;;;;;;;;5071265;28;20201;-85
2023/07/20 08:45:54;;;;;;;1.20;1.10;;;;;;;;;;5072120;28;20211;-85
2023/07/20 08:48:28;;;;;;;1.00;0.70;;;;;;;;;;5071949;28;20292;-85
2023/07/20 08:51:05;;;;;;;0.40;0.40;;;;;;;;;;5071283;28;20201;-85
2023/07/20 08:53:35;;;;;;;0.57;0.57;;;;;;;;;;5071282;28;20210;-85
2023/07/20 08:56:05;;;;;;;0.53;0.53;;;;;;;;;;5071222;28;20228;-85
2023/07/20 08:58:36;;;;;;;0.50;0.50;;;;;;;;;;5071385;28;20238;-85
2023/07/20 09:01:14;;;;;;;0.40;0.40;;;;;;;;;;5071363;28;20258;-85
2023/07/20 09:03:49;;;;;;;0.40;0.40;;;;;;;;;;5071601;28;20187;-85
2023/07/20 09:06:20;;;;;;;0.47;0.47;;;;;;;;;;5071851;28;20205;-85
2023/07/20 09:08:50;;;;;;;3.97;2.33;;;;;;;;;;5071564;28;20206;-85
2023/07/20 09:11:20;;;;;;;0.77;0.50;;;;;;;;;;5071969;28;20222;-85
2023/07/20 09:14:03;;;;;;;0.60;0.60;;;;;;;;;;5071192;28;20215;-85
2023/07/20 09:16:37;;;;;;;0.50;0.50;;;;;;;;;;5071349;28;20206;-82
2023/07/20 09:19:07;;;;;;;0.80;0.80;;;;;;;;;;5071534;28;20200;-82
2023/07/20 09:21:42;;;;;;;0.50;0.50;;;;;;;;;;5071491;28;20203;-82
2023/07/20 09:24:17;;;;;;;1.27;1.17;;;;;;;;;;5071247;28;20193;-82
2023/07/20 09:26:48;;;;;;;0.40;0.40;;;;;;;;;;5074926;28;20221;-82
2023/07/20 09:29:26;;;;;;;0.67;0.67;;;;;;;;;;5075333;28;20229;-82
2023/07/20 09:32:11;;;;;;;0.50;0.50;;;;;;;;;;5075539;28;20246;-82
2023/07/20 09:35:09;;;;;;;0.40;0.40;;;;;;;;;;5074798;28;20207;-82
2023/07/20 09:37:52;;;;;;;0.90;0.90;;;;;;;;;;5075470;28;20241;-82
2023/07/20 09:40:41;;;;;;;1.47;1.00;;;;;;;;;;5075150;28;20199;-82
2023/07/20 09:43:34;;;;;;;0.50;0.50;;;;;;;;;;5074346;28;20220;-83
2023/07/20 09:46:08;;;;;;;0.70;0.53;;;;;;;;;;5075013;28;20202;-83
2023/07/20 09:48:40;;;;;;;0.53;0.53;;;;;;;;;;5075037;28;20205;-82
2023/07/20 09:51:29;;;;;;;0.87;0.87;;;;;;;;;;5074285;28;20248;-82
2023/07/20 09:54:00;;;;;;;0.50;0.50;;;;;;;;;;5074320;28;20240;-81
2023/07/20 09:56:32;;;;;;;2.90;0.90;;;;;;;;;;5074713;28;20234;-81
2023/07/20 09:59:06;;;;;;;0.40;0.40;;;;;;;;;;5074903;28;20204;-81
2023/07/20 10:01:38;;;;;;;0.40;0.40;;;;;;;;;;5074295;28;20193;-82
2023/07/20 10:04:10;;;;;;;0.40;0.40;;;;;;;;;;5074623;28;20206;-82
2023/07/20 10:06:44;;;;;;;0.83;0.83;;;;;;;;;;5074574;28;20210;-81
2023/07/20 10:09:16;;;;;;;0.43;0.43;;;;;;;;;;5074316;28;20201;-85
2023/07/20 10:11:51;;;;;;;1.33;0.80;;;;;;;;;;5074690;28;20225;-85
2023/07/20 10:14:42;;;;;;;0.30;0.30;;;;;;;;;;5074067;28;20215;-84
2023/07/20 10:17:16;;;;;;;0.60;0.60;;;;;;;;;;5074466;28;20310;-85
2023/07/20 10:19:46;;;;;;;1.17;0.90;;;;;;;;;;5074660;28;20203;-85
2023/07/20 10:22:29;;;;;;;0.50;0.50;;;;;;;;;;5074455;28;20301;-84
2023/07/20 10:25:00;;;;;;;2.87;0.97;;;;;;;;;;5074303;28;20210;-85
2023/07/20 10:27:29;;;;;;;0.50;0.50;;;;;;;;;;5073545;28;20222;-85
2023/07/20 10:30:00;;;;;;;2.07;0.67;;;;;;;;;;5074282;28;20206;-81
2023/07/20 10:32:30;;;;;;;0.30;0.30;;;;;;;;;;5074278;28;20238;-81
2023/07/20 10:34:59;;;;;;;0.40;0.40;;;;;;;;;;5073732;28;20220;-81
2023/07/20 10:37:45;;;;;;;0.60;0.60;;;;;;;;;;5072771;28;20192;-81
2023/07/20 10:40:30;;;;;;;0.40;0.40;;;;;;;;;;5065840;28;20204;-82
2023/07/20 10:43:00;;;;;;;0.67;0.67;;;;;;;;;;5073395;28;20212;-82
2023/07/20 10:45:41;;;;;;;0.77;0.70;;;;;;;;;;5073809;28;20201;-81
2023/07/20 10:48:20;;;;;;;0.50;0.50;;;;;;;;;;5073696;28;20201;-83
2023/07/20 10:51:11;;;;;;;1.33;0.63;;;;;;;;;;5074302;28;20264;-81
2023/07/20 10:53:43;;;;;;;0.40;0.40;;;;;;;;;;5068525;28;20230;-81
2023/07/20 10:56:21;;;;;;;0.43;0.43;;;;;;;;;;5073530;28;20244;-81
2023/07/20 10:58:50;;;;;;;0.40;0.40;;;;;;;;;;5073556;28;20239;-81
2023/07/20 11:01:19;;;;;;;0.30;0.30;;;;;;;;;;5073369;28;20215;-81
2023/07/20 11:03:51;;;;;;;0.30;0.30;;;;;;;;;;5073282;28;20193;-81
2023/07/20 11:06:38;;;;;;;0.40;0.40;;;;;;;;;;5073801;28;20293;-82
2023/07/20 11:09:14;;;;;;;0.40;0.40;;;;;;;;;;5073007;28;20202;-81
2023/07/20 11:11:49;;;;;;;0.40;0.40;;;;;;;;;;5073441;28;20246;-81
2023/07/20 11:14:22;;;;;;;0.63;0.63;;;;;;;;;;5073027;28;20224;-81
2023/07/20 11:16:52;;;;;;;0.70;0.70;;;;;;;;;;5073861;28;20258;-81
2023/07/20 11:19:23;;;;;;;0.70;0.70;;;;;;;;;;5072616;28;20193;-82
2023/07/20 11:21:56;;;;;;;0.30;0.30;;;;;;;;;;5073318;28;20203;-81
2023/07/20 11:24:31;;;;;;;0.67;0.67;;;;;;;;;;5073207;28;20205;-81
2023/07/20 11:27:03;;;;;;;0.50;0.50;;;;;;;;;;5072728;28;20193;-81
2023/07/20 11:29:33;;;;;;;1.00;1.00;;;;;;;;;;5072794;28;20197;-81
2023/07/20 11:32:02;;;;;;;0.60;0.60;;;;;;;;;;5072956;28;20199;-81
2023/07/20 11:34:34;;;;;;;0.47;0.47;;;;;;;;;;5072770;28;20221;-81
2023/07/20 11:37:03;;;;;;;0.70;0.70;;;;;;;;;;5072598;28;20208;-81
2023/07/20 11:39:35;;;;;;;2.67;0.83;;;;;;;;;;5072945;28;20299;-82
2023/07/20 11:42:08;;;;;;;0.43;0.43;;;;;;;;;;5073114;28;20215;-81
2023/07/20 11:44:37;;;;;;;0.50;0.50;;;;;;;;;;5072433;28;20231;-81
2023/07/20 11:47:07;;;;;;;0.60;0.60;;;;;;;;;;5072812;28;20207;-82
2023/07/20 11:52:27;;;;;;;0.60;0.60;;;;;;;;;;5070053;28;20211;-82
2023/07/20 11:54:57;;;;;;;0.63;0.63;;;;;;;;;;5054304;28;20232;-81
2023/07/20 11:57:32;;;;;;;0.80;0.80;;;;;;;;;;5072253;28;20228;-81
2023/07/20 12:00:05;;;;;;;1.70;1.60;;;;;;;;;;5072614;28;20236;-82
2023/07/20 12:02:34;;;;;;;1.00;1.00;;;;;;;;;;5072026;28;20286;-81
2023/07/20 12:05:04;;;;;;;0.90;0.90;;;;;;;;;;5071786;28;20192;-82
2023/07/20 12:07:36;;;;;;;1.40;0.90;;;;;;;;;;5072063;28;20197;-82
2023/07/20 12:10:06;;;;;;;1.00;1.00;;;;;;;;;;5072113;28;20213;-81
2023/07/20 12:12:40;;;;;;;0.70;0.70;;;;;;;;;;5071705;28;20231;-81
2023/07/20 12:15:21;;;;;;;0.73;0.73;;;;;;;;;;5071791;28;20211;-81
2023/07/20 12:17:51;;;;;;;0.77;0.73;;;;;;;;;;5072281;28;20258;-81
2023/07/20 12:20:27;;;;;;;2.93;1.03;;;;;;;;;;5071461;28;20218;-82
2023/07/20 12:22:58;;;;;;;0.40;0.40;;;;;;;;;;5072093;28;20231;-82
2023/07/20 12:25:39;;;;;;;0.73;0.73;;;;;;;;;;5072259;28;20257;-82
2023/07/20 12:28:13;;;;;;;1.20;1.20;;;;;;;;;;5072178;28;20266;-82
2023/07/20 12:30:44;;;;;;;0.50;0.50;;;;;;;;;;5072009;28;20232;-81
2023/07/20 12:33:15;;;;;;;1.07;0.80;;;;;;;;;;5072042;28;20199;-81
2023/07/20 12:35:51;;;;;;;0.60;0.60;;;;;;;;;;5071793;28;20216;-82
2023/07/20 12:38:20;;;;;;;0.90;0.90;;;;;;;;;;5071102;28;20196;-81
2023/07/20 12:40:51;;;;;;;0.40;0.40;;;;;;;;;;5072450;28;20195;-81
2023/07/20 12:43:21;;;;;;;0.50;0.50;;;;;;;;;;5071645;28;20215;-82
2023/07/20 12:45:50;;;;;;;0.50;0.50;;;;;;;;;;5071985;28;20200;-82
2023/07/20 12:48:21;;;;;;;0.70;0.70;;;;;;;;;;5071465;28;20226;-82
2023/07/20 12:50:50;;;;;;;0.50;0.50;;;;;;;;;;5071409;28;20205;-82
2023/07/20 12:53:21;;;;;;;0.47;0.47;;;;;;;;;;5071635;28;20204;-82
2023/07/20 12:55:53;;;;;;;0.67;0.67;;;;;;;;;;5071034;28;20255;-82
2023/07/20 12:58:24;;;;;;;0.53;0.53;;;;;;;;;;5071415;28;20291;-82
2023/07/20 13:00:56;;;;;;;0.70;0.70;;;;;;;;;;5071642;28;20207;-82
2023/07/20 13:03:29;;;;;;;0.40;0.40;;;;;;;;;;5070876;28;20197;-83
2023/07/20 13:05:59;;;;;;;0.40;0.40;;;;;;;;;;5071253;28;20260;-82
2023/07/20 13:08:31;;;;;;;0.40;0.40;;;;;;;;;;5071340;28;20193;-82
2023/07/20 13:11:00;;;;;;;0.60;0.60;;;;;;;;;;5070949;28;20291;-82
2023/07/20 13:13:32;;;;;;;0.40;0.40;;;;;;;;;;5070790;28;20211;-81
2023/07/20 13:16:07;;;;;;;0.77;0.60;;;;;;;;;;5071586;28;20225;-83
2023/07/20 13:18:36;;;;;;;0.43;0.43;;;;;;;;;;5071369;28;20228;-84
2023/07/20 13:21:11;;;;;;;0.80;0.80;;;;;;;;;;5071070;28;20207;-86
2023/07/20 13:23:47;;;;;;;0.40;0.40;;;;;;;;;;5070906;28;20205;-86
2023/07/20 13:26:17;;;;;;;0.70;0.70;;;;;;;;;;5071268;28;20195;-86
2023/07/20 13:28:50;;;;;;;0.70;0.53;;;;;;;;;;5071324;28;20219;-86
2023/07/20 13:31:18;;;;;;;0.50;0.50;;;;;;;;;;5070972;28;20210;-86
2023/07/20 13:33:56;;;;;;;0.70;0.70;;;;;;;;;;5071184;28;20217;-86
2023/07/20 13:36:29;;;;;;;0.87;0.87;;;;;;;;;;5071113;28;20220;-86
2023/07/20 13:38:58;;;;;;;0.50;0.50;;;;;;;;;;5070810;28;20201;-86
2023/07/20 13:41:27;;;;;;;1.20;0.97;;;;;;;;;;5071093;28;20192;-86
2023/07/20 13:44:05;;;;;;;0.63;0.63;;;;;;;;;;5071536;28;20302;-86
2023/07/20 13:46:34;;;;;;;0.50;0.50;;;;;;;;;;5071110;28;20230;-86
2023/07/20 13:49:05;;;;;;;0.90;0.60;;;;;;;;;;5071221;28;20211;-85
2023/07/20 13:51:50;;;;;;;0.40;0.40;;;;;;;;;;5071539;28;20201;-85
2023/07/20 13:54:38;;;;;;;1.50;0.77;;;;;;;;;;5070668;28;20205;-85
2023/07/20 13:57:15;;;;;;;0.47;0.47;;;;;;;;;;5070334;28;20232;-85
2023/07/20 13:59:46;;;;;;;0.77;0.50;;;;;;;;;;5071171;28;20205;-85
2023/07/20 14:02:16;;;;;;;0.60;0.60;;;;;;;;;;5070841;28;20205;-86
2023/07/20 14:05:02;;;;;;;0.57;0.57;;;;;;;;;;5070596;28;20199;-85
2023/07/20 14:07:37;;;;;;;0.80;0.70;;;;;;;;;;5070962;28;20207;-85
2023/07/20 14:13:21;;;;;;;0.60;0.60;;;;;;;;;;5066890;28;20201;-85
2023/07/20 14:16:29;;;;;;;;;;;;;;;;;;;;;
2023/07/20 14:21:48;;;;;;;0.40;0.40;;;;;;;;;;5073732;28;20232;-85
2023/07/20 14:24:44;;;;;;;0.60;0.60;;;;;;;;;;5074239;28;20251;-85
2023/07/20 14:27:14;;;;;;;0.40;0.40;;;;;;;;;;5074155;28;20225;-85
2023/07/20 14:29:52;;;;;;;0.50;0.50;;;;;;;;;;5073956;28;20217;-85
2023/07/20 14:32:38;;;;;;;0.57;0.57;;;;;;;;;;5073318;28;20237;-85
2023/07/20 14:35:17;;;;;;;0.43;0.43;;;;;;;;;;5074056;28;20193;-85
2023/07/20 14:38:07;;;;;;;0.70;0.70;;;;;;;;;;5073539;28;20188;-85
2023/07/20 14:40:50;;;;;;;;;;;;;;;;;;;;;
2023/07/20 14:43:49;;;;;;;0.60;0.60;;;;;;;;;;5056505;28;20262;-85
2023/07/20 14:46:28;;;;;;;0.73;0.60;;;;;;;;;;5073882;28;20287;-86
2023/07/20 14:49:04;;;;;;;0.63;0.63;;;;;;;;;;5073264;28;20240;-85
2023/07/20 14:51:43;;;;;;;0.43;0.43;;;;;;;;;;5074175;28;20213;-85
2023/07/20 14:54:15;;;;;;;0.80;0.80;;;;;;;;;;5073591;28;20208;-85
2023/07/20 14:56:50;;;;;;;0.53;0.53;;;;;;;;;;5073385;28;20240;-85
2023/07/20 14:59:22;;;;;;;0.57;0.57;;;;;;;;;;5073608;28;20201;-85
2023/07/20 15:01:54;;;;;;;0.57;0.57;;;;;;;;;;5074251;28;20229;-85
2023/07/20 15:04:26;;;;;;;0.73;0.73;;;;;;;;;;5073509;28;20230;-85
2023/07/20 15:06:56;;;;;;;0.50;0.50;;;;;;;;;;5073421;28;20196;-86
2023/07/20 15:09:25;;;;;;;0.47;0.47;;;;;;;;;;5073515;28;20218;-86
2023/07/20 15:11:55;;;;;;;0.60;0.60;;;;;;;;;;5073533;28;20198;-85
2023/07/20 15:14:26;;;;;;;0.57;0.57;;;;;;;;;;5072917;28;20198;-85
2023/07/20 15:16:56;;;;;;;0.60;0.60;;;;;;;;;;5073174;28;20315;-86
2023/07/20 15:19:26;;;;;;;0.40;0.40;;;;;;;;;;5073618;28;20203;-85
2023/07/20 15:21:57;;;;;;;0.60;0.60;;;;;;;;;;5073185;28;20252;-85
2023/07/20 15:24:27;;;;;;;0.50;0.50;;;;;;;;;;5072370;28;20243;-85
2023/07/20 15:26:57;;;;;;;0.40;0.40;;;;;;;;;;5073123;28;20240;-86
2023/07/20 15:29:26;;;;;;;0.47;0.47;;;;;;;;;;5073005;28;20261;-85
2023/07/20 15:31:57;;;;;;;0.50;0.50;;;;;;;;;;5072859;28;20202;-85
2023/07/20 15:34:29;;;;;;;0.40;0.40;;;;;;;;;;5072561;28;20213;-85
2023/07/20 15:36:58;;;;;;;1.03;0.60;;;;;;;;;;5073170;28;20218;-85
2023/07/20 15:39:27;;;;;;;0.77;0.77;;;;;;;;;;5072825;28;20244;-85